createdAt,value
2018-02-11T00:00:21.222Z,9.15
2018-02-11T00:02:48.425Z,10.65
2018-02-11T00:05:14.882Z,9.30
2018-02-11T00:07:41.462Z,11.02
2018-02-11T00:10:07.920Z,10.27
2018-02-11T00:12:34.401Z,9.20
2018-02-11T00:15:01.589Z,10.82
2018-02-11T00:17:28.119Z,9.45
2018-02-11T00:19:54.980Z,10.73
2018-02-11T00:22:21.687Z,11.60
2018-02-11T00:24:48.308Z,12.43
2018-02-11T00:27:16.958Z,14.87
2018-02-11T00:29:43.574Z,13.10
2018-02-11T00:32:10.040Z,12.13
2018-02-11T00:34:36.582Z,6.43
2018-02-11T00:37:03.188Z,8.40
2018-02-11T00:39:29.714Z,9.98
2018-02-11T00:41:56.168Z,12.10
2018-02-11T00:44:22.642Z,9.75
2018-02-11T00:46:49.912Z,13.50
2018-02-11T00:49:16.370Z,13.65
2018-02-11T00:51:42.878Z,13.98
2018-02-11T00:54:09.455Z,13.07
2018-02-11T00:56:35.886Z,16.87
2018-02-11T00:59:02.350Z,15.43
2018-02-11T01:01:29.600Z,13.93
2018-02-11T01:03:56.906Z,13.57
2018-02-11T01:06:23.337Z,12.40
2018-02-11T01:08:49.773Z,13.68
2018-02-11T01:11:16.231Z,13.10
2018-02-11T01:13:42.662Z,14.10
2018-02-11T01:16:09.290Z,13.77
2018-02-11T01:18:35.884Z,13.23
2018-02-11T01:21:02.370Z,12.85
2018-02-11T01:23:28.846Z,13.45
2018-02-11T01:25:56.074Z,12.90
2018-02-11T01:28:22.553Z,12.30
2018-02-11T01:30:49.014Z,13.65
2018-02-11T01:33:15.446Z,14.45
2018-02-11T01:35:41.865Z,13.73
2018-02-11T01:38:08.354Z,14.15
2018-02-11T01:40:35.513Z,13.32
2018-02-11T01:43:01.978Z,13.68
2018-02-11T01:45:28.447Z,13.10
2018-02-11T01:47:54.939Z,14.80
2018-02-11T01:50:21.461Z,15.50
2018-02-11T01:52:47.910Z,13.40
2018-02-11T01:55:14.382Z,13.82
2018-02-11T01:57:40.848Z,13.85
2018-02-11T02:00:08.098Z,14.75
2018-02-11T02:02:35.336Z,15.20
2018-02-11T02:05:02.515Z,12.82
2018-02-11T02:07:29.010Z,13.50
2018-02-11T02:09:55.502Z,14.32
2018-02-11T02:12:22.082Z,12.95
2018-02-11T02:14:48.512Z,12.50
2018-02-11T02:17:15.116Z,15.00
2018-02-11T02:19:41.796Z,13.40
2018-02-11T02:22:08.244Z,13.65
2018-02-11T02:24:35.450Z,13.90
2018-02-11T02:27:01.975Z,14.30
2018-02-11T02:29:28.603Z,14.25
2018-02-11T02:31:55.054Z,14.07
2018-02-11T02:34:21.506Z,12.93
2018-02-11T02:36:48.180Z,13.05
2018-02-11T02:39:15.363Z,13.15
2018-02-11T02:41:41.811Z,12.75
2018-02-11T02:44:08.995Z,13.18
2018-02-11T02:46:36.350Z,12.80
2018-02-11T02:49:03.633Z,12.90
2018-02-11T02:51:30.112Z,12.90
2018-02-11T02:53:56.526Z,12.30
2018-02-11T02:56:23.000Z,12.27
2018-02-11T02:58:50.191Z,13.02
2018-02-11T03:01:16.679Z,13.18
2018-02-11T03:03:43.118Z,13.40
2018-02-11T03:06:09.618Z,12.75
2018-02-11T03:08:36.109Z,13.32
2018-02-11T03:11:03.411Z,12.27
2018-02-11T03:13:29.894Z,12.80
2018-02-11T03:15:57.108Z,12.85
2018-02-11T03:18:23.960Z,11.63
2018-02-11T03:20:50.470Z,13.30
2018-02-11T03:23:17.669Z,13.05
2018-02-11T03:25:44.882Z,13.18
2018-02-11T03:28:11.362Z,11.77
2018-02-11T03:30:37.982Z,11.60
2018-02-11T03:33:05.189Z,10.88
2018-02-11T03:35:31.682Z,10.13
2018-02-11T03:37:58.916Z,9.70
2018-02-11T03:40:26.682Z,10.00
2018-02-11T03:42:53.900Z,10.25
2018-02-11T03:45:20.370Z,9.70
2018-02-11T03:47:47.615Z,9.48
2018-02-11T03:50:14.799Z,10.00
2018-02-11T03:52:41.291Z,10.32
2018-02-11T03:55:07.734Z,9.85
2018-02-11T03:57:34.943Z,9.35
2018-02-11T04:00:01.377Z,11.07
2018-02-11T04:02:27.841Z,10.45
2018-02-11T04:04:54.302Z,10.40
2018-02-11T04:07:20.735Z,9.50
2018-02-11T04:09:47.942Z,9.60
2018-02-11T04:12:14.390Z,9.07
2018-02-11T04:14:40.857Z,9.43
2018-02-11T04:17:07.367Z,9.40
2018-02-11T04:19:33.815Z,8.77
2018-02-11T04:22:01.048Z,9.10
2018-02-11T04:24:28.381Z,10.30
2018-02-11T04:26:54.834Z,8.02
2018-02-11T04:29:21.334Z,8.73
2018-02-11T04:31:47.829Z,9.38
2018-02-11T04:34:14.235Z,6.80
2018-02-11T04:36:40.727Z,8.10
2018-02-11T04:39:07.143Z,8.63
2018-02-11T04:41:33.579Z,8.75
2018-02-11T04:44:00.164Z,8.80
2018-02-11T04:46:26.647Z,8.27
2018-02-11T04:48:53.122Z,9.10
2018-02-11T04:51:19.624Z,8.18
2018-02-11T04:53:46.046Z,6.60
2018-02-11T04:56:12.501Z,7.85
2018-02-11T04:58:38.940Z,8.05
2018-02-11T05:01:05.416Z,6.15
2018-02-11T05:03:31.863Z,5.78
2018-02-11T05:05:59.091Z,6.62
2018-02-11T05:08:25.542Z,5.45
2018-02-11T05:10:52.686Z,6.32
2018-02-11T05:13:19.902Z,5.82
2018-02-11T05:15:46.389Z,7.12
2018-02-11T05:18:12.833Z,3.75
2018-02-11T05:20:39.314Z,6.95
2018-02-11T05:23:05.811Z,8.48
2018-02-11T05:25:32.237Z,6.87
2018-02-11T05:27:59.671Z,8.02
2018-02-11T05:30:26.126Z,7.57
2018-02-11T05:32:52.636Z,6.32
2018-02-11T05:35:19.853Z,7.87
2018-02-11T05:37:46.415Z,6.43
2018-02-11T05:40:13.760Z,4.35
2018-02-11T05:42:40.299Z,6.37
2018-02-11T05:45:06.742Z,6.03
2018-02-11T05:47:33.919Z,6.47
2018-02-11T05:50:00.426Z,5.78
2018-02-11T05:52:27.669Z,5.70
2018-02-11T05:54:54.890Z,7.12
2018-02-11T05:57:21.544Z,6.28
2018-02-11T05:59:48.034Z,5.80
2018-02-11T06:05:10.320Z,6.18
2018-02-11T06:07:36.778Z,5.37
2018-02-11T06:10:03.305Z,4.87
2018-02-11T06:12:29.728Z,5.07
2018-02-11T06:14:56.167Z,4.47
2018-02-11T06:17:22.687Z,5.45
2018-02-11T06:19:49.922Z,5.35
2018-02-11T06:22:16.391Z,5.00
2018-02-11T06:24:42.831Z,5.50
2018-02-11T06:27:09.297Z,3.75
2018-02-11T06:29:35.706Z,5.43
2018-02-11T06:32:02.967Z,5.12
2018-02-11T06:34:30.147Z,5.35
2018-02-11T06:36:57.027Z,4.45
2018-02-11T06:39:23.606Z,5.65
2018-02-11T06:41:50.164Z,5.57
2018-02-11T06:44:16.767Z,5.60
2018-02-11T06:46:43.975Z,6.20
2018-02-11T06:49:10.395Z,5.00
2018-02-11T06:51:36.857Z,4.70
2018-02-11T06:54:03.332Z,5.95
2018-02-11T06:56:29.904Z,6.03
2018-02-11T06:58:56.326Z,5.75
2018-02-11T07:01:22.851Z,6.97
2018-02-11T07:03:49.291Z,5.90
2018-02-11T07:06:15.875Z,6.80
2018-02-11T07:08:42.460Z,7.43
2018-02-11T07:11:08.926Z,6.60
2018-02-11T07:13:35.386Z,6.43
2018-02-11T07:16:02.551Z,4.55
2018-02-11T07:18:29.766Z,6.75
2018-02-11T07:20:56.198Z,6.03
2018-02-11T07:23:22.825Z,6.82
2018-02-11T07:25:50.055Z,6.50
2018-02-11T07:28:16.569Z,7.10
2018-02-11T07:30:43.047Z,7.20
2018-02-11T07:33:09.554Z,7.07
2018-02-11T07:35:36.052Z,7.50
2018-02-11T07:38:03.325Z,7.62
2018-02-11T07:40:29.837Z,8.23
2018-02-11T07:42:56.524Z,6.20
2018-02-11T07:45:23.021Z,7.28
2018-02-11T07:47:50.405Z,6.40
2018-02-11T07:50:16.893Z,6.55
2018-02-11T07:52:44.237Z,6.20
2018-02-11T07:55:11.139Z,6.60
2018-02-11T07:57:37.841Z,7.40
2018-02-11T08:00:04.329Z,6.70
2018-02-11T08:02:30.769Z,5.85
2018-02-11T08:04:57.352Z,6.05
2018-02-11T08:07:24.854Z,5.53
2018-02-11T08:09:51.348Z,5.95
2018-02-11T08:12:17.914Z,5.85
2018-02-11T08:14:44.395Z,5.70
2018-02-11T08:17:11.590Z,6.53
2018-02-11T08:19:38.133Z,7.70
2018-02-11T08:22:04.736Z,6.72
2018-02-11T08:24:31.322Z,6.97
2018-02-11T08:26:57.945Z,6.53
2018-02-11T08:29:24.453Z,6.25
2018-02-11T08:31:52.153Z,6.20
2018-02-11T08:34:18.687Z,6.75
2018-02-11T08:36:45.242Z,5.75
2018-02-11T08:39:11.795Z,3.40
2018-02-11T08:41:39.167Z,6.25
2018-02-11T08:44:06.475Z,6.35
2018-02-11T08:46:32.943Z,6.20
2018-02-11T08:49:00.165Z,6.05
2018-02-11T08:51:26.671Z,6.07
2018-02-11T08:53:53.214Z,5.30
2018-02-11T08:56:19.846Z,5.53
2018-02-11T08:58:46.707Z,6.20
2018-02-11T09:01:13.190Z,5.35
2018-02-11T09:03:40.467Z,4.95
2018-02-11T09:06:07.109Z,6.68
2018-02-11T09:08:33.620Z,6.28
2018-02-11T09:11:00.153Z,3.87
2018-02-11T09:13:26.669Z,4.87
2018-02-11T09:15:53.266Z,5.07
2018-02-11T09:18:19.778Z,3.72
2018-02-11T09:20:46.263Z,6.62
2018-02-11T09:23:12.795Z,5.57
2018-02-11T09:25:39.274Z,6.00
2018-02-11T09:28:05.911Z,6.95
2018-02-11T09:30:32.400Z,7.25
2018-02-11T09:32:59.703Z,5.90
2018-02-11T09:35:26.265Z,6.60
2018-02-11T09:37:52.713Z,5.68
2018-02-11T09:40:19.410Z,4.07
2018-02-11T09:42:45.849Z,7.22
2018-02-11T09:45:12.382Z,6.50
2018-02-11T09:47:38.922Z,6.60
2018-02-11T09:50:05.504Z,4.50
2018-02-11T09:52:32.032Z,4.70
2018-02-11T09:54:58.590Z,7.72
2018-02-11T09:57:25.856Z,5.18
2018-02-11T09:59:53.073Z,5.45
2018-02-11T10:02:19.636Z,5.80
2018-02-11T10:04:46.904Z,7.12
2018-02-11T10:07:13.533Z,6.05
2018-02-11T10:09:40.265Z,5.03
2018-02-11T10:12:07.503Z,3.78
2018-02-11T10:14:34.019Z,7.65
2018-02-11T10:17:00.608Z,8.30
2018-02-11T10:19:27.077Z,8.75
2018-02-11T10:21:54.448Z,8.90
2018-02-11T10:24:20.975Z,8.45
2018-02-11T10:26:47.446Z,8.00
2018-02-11T10:29:14.727Z,8.02
2018-02-11T10:31:41.980Z,8.75
2018-02-11T10:34:08.533Z,9.40
2018-02-11T10:36:35.091Z,9.85
2018-02-11T10:39:01.547Z,9.02
2018-02-11T10:41:28.803Z,9.45
2018-02-11T10:43:56.056Z,8.18
2018-02-11T10:46:23.315Z,8.80
2018-02-11T10:48:50.661Z,9.98
2018-02-11T10:51:17.991Z,8.57
2018-02-11T10:53:44.484Z,9.25
2018-02-11T10:56:10.967Z,8.00
2018-02-11T10:58:38.500Z,7.87
2018-02-11T11:01:04.939Z,8.20
2018-02-11T11:03:31.723Z,8.40
2018-02-11T11:05:58.256Z,6.65
2018-02-11T11:08:24.835Z,7.03
2018-02-11T11:10:51.315Z,8.20
2018-02-11T11:13:18.571Z,7.43
2018-02-11T11:16:11.219Z,7.22
2018-02-11T11:18:38.431Z,6.35
2018-02-11T11:21:04.909Z,6.45
2018-02-11T11:23:32.183Z,7.93
2018-02-11T11:25:58.856Z,6.37
2018-02-11T11:28:25.359Z,6.25
2018-02-11T11:30:51.894Z,9.35
2018-02-11T11:33:18.932Z,7.28
2018-02-11T11:35:45.453Z,6.60
2018-02-11T11:38:12.782Z,9.80
2018-02-11T11:40:39.360Z,6.78
2018-02-11T11:43:05.997Z,8.70
2018-02-11T11:45:32.674Z,8.23
2018-02-11T11:47:59.848Z,8.10
2018-02-11T11:50:26.430Z,4.90
2018-02-11T11:52:53.307Z,5.45
2018-02-11T11:55:19.912Z,4.50
2018-02-11T11:57:46.523Z,5.82
2018-02-11T12:00:14.516Z,3.87
2018-02-11T12:02:41.084Z,5.80
2018-02-11T12:05:07.607Z,5.90
2018-02-11T12:07:34.096Z,2.45
2018-02-11T12:10:01.523Z,2.72
2018-02-11T12:12:28.044Z,2.15
2018-02-11T12:14:54.578Z,2.45
2018-02-11T12:17:21.244Z,3.70
2018-02-11T12:19:47.683Z,4.05
2018-02-11T12:22:14.210Z,5.35
2018-02-11T12:24:41.678Z,6.00
2018-02-11T12:27:09.059Z,4.22
2018-02-11T12:29:35.553Z,5.90
2018-02-11T12:32:02.482Z,3.65
2018-02-11T12:34:29.322Z,5.20
2018-02-11T12:36:55.849Z,5.35
2018-02-11T12:39:24.775Z,5.20
2018-02-11T12:41:51.416Z,6.70
2018-02-11T12:44:17.905Z,4.80
2018-02-11T12:46:44.807Z,6.15
2018-02-11T12:49:11.318Z,3.40
2018-02-11T12:51:37.782Z,7.12
2018-02-11T12:54:04.477Z,6.18
2018-02-11T12:56:30.983Z,5.18
2018-02-11T12:58:57.578Z,6.80
2018-02-11T13:01:24.173Z,4.37
2018-02-11T13:03:50.793Z,5.05
2018-02-11T13:06:17.644Z,7.25
2018-02-11T13:08:44.323Z,4.62
2018-02-11T13:11:10.974Z,5.78
2018-02-11T13:13:37.449Z,6.00
2018-02-11T13:16:04.103Z,4.60
2018-02-11T13:18:31.164Z,4.30
2018-02-11T13:20:57.767Z,5.75
2018-02-11T13:23:24.515Z,6.45
2018-02-11T13:25:51.031Z,4.80
2018-02-11T13:28:17.853Z,6.00
2018-02-11T13:30:45.195Z,4.35
2018-02-11T13:33:11.813Z,5.47
2018-02-11T13:35:51.800Z,3.58
2018-02-11T13:38:18.363Z,3.15
2018-02-11T13:40:44.969Z,4.60
2018-02-11T13:43:11.507Z,5.68
2018-02-11T13:45:38.160Z,4.25
2018-02-11T13:48:04.699Z,5.18
2018-02-11T13:50:31.326Z,4.85
2018-02-11T13:52:57.832Z,4.90
2018-02-11T13:55:25.240Z,5.55
2018-02-11T13:57:53.241Z,2.53
2018-02-11T14:00:20.077Z,5.50
2018-02-11T14:02:46.847Z,5.55
2018-02-11T14:05:14.201Z,7.35
2018-02-11T14:07:41.631Z,6.18
2018-02-11T14:10:08.953Z,3.50
2018-02-11T14:12:35.834Z,9.02
2018-02-11T14:15:02.332Z,4.78
2018-02-11T14:17:28.884Z,4.03
2018-02-11T14:19:56.149Z,2.60
2018-02-11T14:22:22.620Z,5.60
2018-02-11T14:24:49.890Z,7.68
2018-02-11T14:27:16.405Z,2.12
2018-02-11T14:29:43.769Z,3.35
2018-02-11T14:32:10.367Z,2.85
2018-02-11T14:34:37.083Z,4.22
2018-02-11T14:37:03.623Z,4.80
2018-02-11T14:39:31.569Z,3.20
2018-02-11T14:41:58.144Z,2.70
2018-02-11T14:44:24.586Z,4.68
2018-02-11T14:46:51.133Z,5.05
2018-02-11T14:49:18.470Z,3.28
2018-02-11T14:51:44.984Z,2.90
2018-02-11T14:54:11.587Z,3.45
2018-02-11T14:56:38.269Z,1.98
2018-02-11T14:59:05.041Z,3.17
2018-02-11T15:01:32.248Z,4.97
2018-02-11T15:03:58.783Z,4.05
2018-02-11T15:06:25.429Z,4.05
2018-02-11T15:08:52.708Z,4.25
2018-02-11T15:11:19.459Z,3.50
2018-02-11T15:13:46.713Z,2.30
2018-02-11T15:16:13.964Z,3.35
2018-02-11T15:18:41.213Z,3.60
2018-02-11T15:21:08.608Z,3.20
2018-02-11T15:23:35.252Z,3.17
2018-02-11T15:26:01.972Z,2.62
2018-02-11T15:28:28.727Z,3.35
2018-02-11T15:30:55.284Z,2.55
2018-02-11T15:33:21.867Z,2.40
2018-02-11T15:35:49.124Z,3.25
2018-02-11T15:38:16.746Z,5.82
2018-02-11T15:40:43.634Z,2.30
2018-02-11T15:43:10.149Z,3.65
2018-02-11T15:45:37.408Z,3.45
2018-02-11T15:48:04.064Z,2.78
2018-02-11T15:50:30.828Z,2.60
2018-02-11T15:52:57.526Z,3.40
2018-02-11T15:55:24.870Z,2.75
2018-02-11T15:57:52.158Z,4.00
2018-02-11T16:00:18.748Z,4.12
2018-02-11T16:02:45.309Z,4.80
2018-02-11T16:05:13.065Z,10.73
2018-02-11T16:07:40.650Z,4.03
2018-02-11T16:10:08.154Z,4.10
2018-02-11T16:12:35.078Z,7.60
2018-02-11T16:15:01.650Z,6.95
2018-02-11T16:17:28.210Z,5.62
2018-02-11T16:19:55.735Z,3.60
2018-02-11T16:22:22.520Z,5.15
2018-02-11T16:24:49.016Z,4.60
2018-02-11T16:27:15.615Z,4.25
2018-02-11T16:29:42.113Z,8.63
2018-02-11T16:32:09.400Z,7.37
2018-02-11T16:34:36.120Z,8.07
2018-02-11T16:37:02.637Z,8.80
2018-02-11T16:39:29.889Z,7.15
2018-02-11T16:41:57.199Z,8.10
2018-02-11T16:44:23.714Z,4.95
2018-02-11T16:46:50.263Z,4.95
2018-02-11T16:49:16.865Z,4.18
2018-02-11T16:51:43.355Z,1.98
2018-02-11T16:54:09.980Z,6.35
2018-02-11T16:56:36.535Z,3.87
2018-02-11T16:59:03.026Z,5.68
2018-02-11T17:01:29.516Z,4.78
2018-02-11T17:03:57.115Z,4.50
2018-02-11T17:06:23.572Z,4.95
2018-02-11T17:08:50.081Z,4.22
2018-02-11T17:11:16.799Z,5.00
2018-02-11T17:13:44.042Z,3.78
2018-02-11T17:16:11.344Z,6.45
2018-02-11T17:18:37.841Z,8.25
2018-02-11T17:21:04.277Z,9.18
2018-02-11T17:23:31.017Z,7.30
2018-02-11T17:25:57.674Z,6.70
2018-02-11T17:28:24.281Z,7.20
2018-02-11T17:30:53.952Z,8.57
2018-02-11T17:33:20.463Z,6.47
2018-02-11T17:35:46.923Z,4.90
2018-02-11T17:38:14.118Z,6.03
2018-02-11T17:40:40.575Z,5.62
2018-02-11T17:43:07.098Z,4.05
2018-02-11T17:45:33.566Z,3.05
2018-02-11T17:48:01.970Z,5.32
2018-02-11T17:50:28.868Z,7.57
2018-02-11T17:52:55.831Z,7.32
2018-02-11T17:55:22.351Z,4.80
2018-02-11T18:03:58.314Z,5.65
2018-02-11T18:06:25.139Z,5.15
2018-02-11T18:08:52.659Z,4.97
2018-02-11T18:11:19.309Z,3.78
2018-02-11T18:14:11.377Z,3.30
2018-02-11T18:16:38.003Z,5.03
2018-02-11T18:19:05.372Z,4.70
2018-02-11T18:21:32.575Z,5.40
2018-02-11T18:23:59.905Z,3.65
2018-02-11T18:26:26.512Z,4.97
2018-02-11T18:28:53.252Z,3.50
2018-02-11T18:31:20.787Z,3.55
2018-02-11T18:33:47.382Z,3.58
2018-02-11T18:36:13.867Z,5.07
2018-02-11T18:38:40.654Z,6.85
2018-02-11T18:41:07.399Z,5.07
2018-02-11T18:43:34.026Z,5.70
2018-02-11T18:46:00.650Z,5.75
2018-02-11T18:48:27.220Z,6.25
2018-02-11T18:50:53.679Z,7.20
2018-02-11T18:53:20.221Z,4.78
2018-02-11T18:55:47.524Z,5.80
2018-02-11T18:58:14.045Z,6.07
2018-02-11T19:00:40.792Z,4.87
2018-02-11T19:03:08.052Z,4.87
2018-02-11T19:05:34.816Z,4.78
2018-02-11T19:08:02.085Z,5.10
2018-02-11T19:10:29.071Z,4.80
2018-02-11T19:12:55.712Z,4.95
2018-02-11T19:15:22.219Z,5.90
2018-02-11T19:17:49.109Z,5.60
2018-02-11T19:20:15.724Z,6.15
2018-02-11T19:22:42.251Z,7.82
2018-02-11T19:25:08.871Z,5.55
2018-02-11T19:27:35.469Z,5.55
2018-02-11T19:30:02.715Z,7.00
2018-02-11T19:32:29.276Z,7.15
2018-02-11T19:34:57.423Z,4.20
2018-02-11T19:37:23.987Z,5.05
2018-02-11T19:39:50.624Z,5.35
2018-02-11T19:42:17.194Z,5.80
2018-02-11T19:44:44.452Z,4.97
2018-02-11T19:47:11.808Z,7.07
2018-02-11T19:49:39.138Z,4.72
2018-02-11T19:52:06.642Z,5.75
2018-02-11T19:54:33.228Z,4.85
2018-02-11T19:57:00.583Z,6.53
2018-02-11T19:59:28.966Z,4.20
2018-02-11T20:01:55.631Z,3.85
2018-02-11T20:04:22.263Z,3.70
2018-02-11T20:06:48.861Z,4.70
2018-02-11T20:09:17.017Z,4.20
2018-02-11T20:11:43.556Z,3.00
2018-02-11T20:14:10.104Z,8.52
2018-02-11T20:16:36.601Z,7.50
2018-02-11T20:19:03.722Z,10.65
2018-02-11T20:21:30.988Z,8.93
2018-02-11T20:23:58.297Z,12.32
2018-02-11T20:26:25.647Z,10.30
2018-02-11T20:28:53.648Z,8.48
2018-02-11T20:31:20.376Z,8.52
2018-02-11T20:33:46.867Z,9.43
2018-02-11T20:36:14.246Z,4.22
2018-02-11T20:38:41.467Z,6.28
2018-02-11T20:41:08.038Z,4.70
2018-02-11T20:43:34.596Z,3.08
2018-02-11T20:46:02.028Z,4.00
2018-02-11T20:48:29.157Z,4.95
2018-02-11T20:50:55.780Z,4.80
2018-02-11T20:53:22.425Z,5.35
2018-02-11T20:55:48.918Z,5.80
2018-02-11T20:58:16.182Z,4.82
2018-02-11T21:00:42.760Z,4.82
2018-02-11T21:03:10.064Z,3.47
2018-02-11T21:05:37.471Z,4.22
2018-02-11T21:08:04.202Z,2.47
2018-02-11T21:10:30.779Z,4.25
2018-02-11T21:12:58.105Z,6.10
2018-02-11T21:15:24.737Z,3.78
2018-02-11T21:17:51.314Z,5.12
2018-02-11T21:20:18.860Z,4.87
2018-02-11T21:22:45.452Z,5.62
2018-02-11T21:25:12.049Z,4.45
2018-02-11T21:27:38.607Z,5.15
2018-02-11T21:30:05.207Z,4.80
2018-02-11T21:32:32.632Z,4.30
2018-02-11T21:35:00.015Z,5.20
2018-02-11T21:37:27.273Z,4.53
2018-02-11T21:39:53.813Z,3.33
2018-02-11T21:42:21.155Z,3.97
2018-02-11T21:44:47.905Z,5.00
2018-02-11T21:47:14.508Z,5.28
2018-02-11T21:49:42.062Z,5.62
2018-02-11T21:52:08.658Z,4.47
2018-02-11T21:54:35.975Z,3.00
2018-02-11T21:57:02.498Z,2.97
2018-02-11T21:59:29.489Z,2.75
2018-02-11T22:01:56.715Z,3.55
2018-02-11T22:04:23.275Z,2.70
2018-02-11T22:06:49.985Z,2.17
2018-02-11T22:09:16.765Z,3.65
2018-02-11T22:11:43.335Z,3.55
2018-02-11T22:14:10.736Z,4.47
2018-02-11T22:16:40.020Z,4.35
2018-02-11T22:19:06.723Z,4.40
2018-02-11T22:21:34.112Z,2.92
2018-02-11T22:24:00.551Z,4.78
2018-02-11T22:26:27.222Z,4.65
2018-02-11T22:28:54.133Z,5.15
2018-02-11T22:31:21.720Z,4.35
2018-02-11T22:33:49.774Z,3.95
2018-02-11T22:36:18.194Z,2.50
2018-02-11T22:38:44.892Z,3.40
2018-02-11T22:41:11.572Z,3.12
2018-02-11T22:43:38.150Z,3.15
2018-02-11T22:46:05.412Z,2.83
2018-02-11T22:48:32.111Z,2.95
2018-02-11T22:50:58.637Z,5.57
2018-02-11T22:53:25.157Z,2.53
2018-02-11T22:55:51.719Z,4.80
2018-02-11T22:58:18.289Z,4.87
2018-02-11T23:00:44.774Z,4.25
2018-02-11T23:03:11.240Z,4.60
2018-02-11T23:05:38.170Z,5.00
2018-02-11T23:08:05.321Z,4.28
2018-02-11T23:10:31.857Z,4.55
2018-02-11T23:12:59.154Z,4.50
2018-02-11T23:15:26.361Z,4.28
2018-02-11T23:17:52.939Z,3.28
2018-02-11T23:20:20.238Z,4.78
2018-02-11T23:22:46.812Z,3.65
2018-02-11T23:25:13.262Z,4.15
2018-02-11T23:27:40.726Z,3.60
2018-02-11T23:30:07.263Z,3.53
2018-02-11T23:32:34.573Z,3.92
2018-02-11T23:35:01.042Z,3.30
2018-02-11T23:37:28.266Z,4.03
2018-02-11T23:39:54.755Z,3.35
2018-02-11T23:42:21.902Z,4.10
2018-02-11T23:44:48.446Z,3.45
2018-02-11T23:47:14.974Z,3.55
2018-02-11T23:49:41.494Z,3.87
2018-02-11T23:52:08.879Z,4.22
2018-02-11T23:54:35.318Z,4.57
2018-02-11T23:57:01.886Z,5.00
2018-02-11T23:59:28.862Z,6.28
